MCB weather

Manjarrez de Caborca Airport
Caborca, Sonora, Mexico

Public forecast

Using degrees Celsius for public forecast. Weather courtesy of forecast.io.

Closest aviation weather report (METAR) to Manjarrez de Caborca Airport

Closest report is (Old) Puerto PeƱasco Airport, 77.5 nm (143.4 km) WNW. Retrieved UTC (0 seconds ago):

Closest aviation forecast (TAF) to Manjarrez de Caborca Airport

Closest forecast is Nogales International Airport, 83.1 nm (153.8 km) ENE. Retrieved 2020/05/26 06:22 UTC (3 hours ago):

TAF KOLS 260520Z 2606/2706 VRB03KT P6SM SKC FM261900 27008KT P6SM SKC FM270300 VRB03KT P6SM SKC